Main page
METAR-TAF:

METAR-TAF

Airports :

Montichiari

Brescia, Italy

latitude: 45-24-02N, longitude: 010-18-59E, elevation: 104 m

Current weather observation

The report was made 1 hour and 22 minutes ago, at 08:50 UTC
Wind 2 kt from the Northwest
Temperature 4°C
Humidity 87%
Pressure 1026 hPa
Visibility 10 km or more
no clouds below 1500 m and no cumulonimbus

METAR: LIPO 060850Z 31002KT CAVOK 04/02 Q1026

Time: 11:12 (10:12 UTC)

Forecast

The report was made 5 hours and 12 minutes ago, at 05:00 UTC
Forecast valid from 06 at 06 UTC to 07 at 06 UTC
Wind 5 kt from variable directions
Visibility 10 km or more
no clouds below 1500 m and no cumulonimbus

TAF: LIPO 060500Z 0606/0706 VRB05KT CAVOK

Weather observations and forecasts of more than 4000 airports (METAR and TAF reports).

The available stations are represented by yellow and red dots on the map.

Hover mouse over dot to see the name of the station.

Then click to see weather observations and forecasts.

To change the map : click on the green buttons with a black cross to zoom in, on the green button with a dash to zoom out, or on the green arrows for adjacent maps.


METAR-TAF: